Silver Lake, Washington
Current Conditions -  °F | °C
As of 12:53 PM on Tuesday 21 Oct 2014 (Local Time) from KPAE Reporting Station
Overcast Overcast  
Wind Chill: 59°   Ceiling: 6500
Heat Index: 59°   Visibility: 10mi
Dew Point: 49°   Wind: 23mph
Humidity: 69%   Direction: 200°SSW
Pressure: 29.92"   Gusts: NA
Location:  47.9027°N, 122.261°W
Report Text: KPAE 211953Z 20020KT 10SM FEW029 BKN065 OVC110 15/09 A2992 RMK AO2 PK WND 19027/1943 SLP130 T01500094
Loading
Personal Weather Stations






























Interactive Weather Map
Tropical Storm Tracking
New forecast layout! Learn more

10-Day Weather Forecast

Advertisements
Track Severe Weather on mobile